Accueil
METAR-TAF:

METAR-TAF

Aéroports :

Frontone, Italie

latitude: 43-31N, longitude: 012-44E, altitude: 570 m

Observation

Le bulletin a été fait il y a 1 heure et 20 minutes, à 18:55 UTC
Vent 11 kt de ouest/sud-ouest
Température 2°C
Humidité 100%
Pression 1002 hPa
Visibilité: 0300 m
pluie faible, brouillard

METAR: LIVF 231855Z 25011KT 0300 -RA FG VV/// 02/02 Q1002 RMK MON INVIS VAL INVIS VIS MIN 0300

Heure: 21:15 (20:15 UTC)


TAF: absent

Observations et prévisions météorologiques de plus de 4000 aéroports (messages METAR et TAF).

Les stations disponibles sont représentées par des disques jaunes et rouges sur la carte.

Passer la souris dessus pour voir le nom de la station.

Cliquer dessus pour voir les observations et prévisions météorologiques.

Pour changer de carte: cliquez sur les boutons verts avec une croix noire pour zoomer, sur le bouton vert avec un tiret pour effectuer un zoom arrière, ou sur les flèches vertes pour les cartes adjacentes.


METAR-TAF: